GHB weather

Governor's Harbour Airport
Governor's Harbour, Governor's Harbour, Bahamas

Public forecast

Using degrees Celsius for public forecast. Weather courtesy of forecast.io.

METAR (pilot weather report)

Closest report is Lynden Pindling International Airport, 63.4 nm (117.5 km) WSW. Retrieved 2019/08/23 06:00 UTC (13 minutes ago):

MYNN 230600Z 17005KT 9999 VCSH SCT015CB SCT020 BKN100 26/24 A2998

TAF (pilot weather forecast)

Closest forecast is Lynden Pindling International Airport, 63.4 nm (117.5 km) WSW. Retrieved 2019/08/23 06:44 UTC (0 seconds ago):

TAF COR MYNN 230450Z 2306/2406 16007KT 9000 -SHRA FEW016CB SCT020 BKN100 FM231500 16012KT 7000 SHRA FEW016CB SCT018 BKN100 FM232300 15010G20KT 6000 TSRA SCT015CB SCT018 BKN080